Lomé-Tokoin Airport

Airport
ICAO code: 
DXXX
IATA Code: 
LFW
Summary
ICAO Region: 
AFI
Territory: 
Location: 
Lomé,
Serving: 
Lomé
Elevation: 
72 ft
Coordinates: 
Aerial View: 
6° 9' 56.999" N, 1° 15' 15.001" E
Metar
Observation
DXXX 170900Z 24011KT 8000 SCT012 28/24 Q1014 NOSIG
Station
Lome
Date/Time
2022-01-17 09:00:00
Wind direction
240°
Wind speed
11 kts
Lowest cloud amount
scattered clouds
Temperature
28°C
Dew point
24°C
Humidity
78%
QNH
1014 hPa
Weather condition
n/a

Description

Lomé-Tokoin Airport, also known as Gnassingbé Eyadéma International Airport, is an airport in Lomé, the capital of Togo.

Runways

Designator Length Width Surface Rops
4/22 3001 45 ASP Yes/Yes
Airport map: 
Aerial View: 

SKYbrary Partners:

Safety knowledge contributed by: